sensor_id;sensor_type;location;lat;lon;timestamp;temperature;humidity
10083;DHT22;5080;48.528;8.078;2023-05-20T00:01:51;13.10;99.90
10083;DHT22;5080;48.528;8.078;2023-05-20T00:04:18;13.10;99.90
10083;DHT22;5080;48.528;8.078;2023-05-20T00:06:45;13.00;99.90
10083;DHT22;5080;48.528;8.078;2023-05-20T00:09:11;13.10;99.90
10083;DHT22;5080;48.528;8.078;2023-05-20T00:11:39;13.20;99.90
10083;DHT22;5080;48.528;8.078;2023-05-20T00:14:05;13.20;99.90
10083;DHT22;5080;48.528;8.078;2023-05-20T00:16:34;13.20;99.90
10083;DHT22;5080;48.528;8.078;2023-05-20T00:19:01;13.20;99.90
10083;DHT22;5080;48.528;8.078;2023-05-20T00:21:27;13.20;99.90
10083;DHT22;5080;48.528;8.078;2023-05-20T00:23:56;13.10;99.90
10083;DHT22;5080;48.528;8.078;2023-05-20T00:26:23;13.20;99.90
10083;DHT22;5080;48.528;8.078;2023-05-20T00:28:50;13.20;99.90
10083;DHT22;5080;48.528;8.078;2023-05-20T00:31:17;13.20;99.90
10083;DHT22;5080;48.528;8.078;2023-05-20T00:33:45;13.20;99.90
10083;DHT22;5080;48.528;8.078;2023-05-20T00:36:12;13.10;99.90
10083;DHT22;5080;48.528;8.078;2023-05-20T00:38:39;13.10;99.90
10083;DHT22;5080;48.528;8.078;2023-05-20T00:41:05;13.10;99.90
10083;DHT22;5080;48.528;8.078;2023-05-20T00:43:32;13.10;99.90
10083;DHT22;5080;48.528;8.078;2023-05-20T00:46:00;13.00;99.90
10083;DHT22;5080;48.528;8.078;2023-05-20T00:48:31;13.00;99.90
10083;DHT22;5080;48.528;8.078;2023-05-20T00:51:03;13.00;99.90
10083;DHT22;5080;48.528;8.078;2023-05-20T00:53:33;13.00;99.90
10083;DHT22;5080;48.528;8.078;2023-05-20T00:56:00;13.00;99.90
10083;DHT22;5080;48.528;8.078;2023-05-20T00:58:27;13.00;99.90
10083;DHT22;5080;48.528;8.078;2023-05-20T01:00:54;13.00;99.90
10083;DHT22;5080;48.528;8.078;2023-05-20T01:03:21;13.00;99.90
10083;DHT22;5080;48.528;8.078;2023-05-20T01:05:48;13.00;99.90
10083;DHT22;5080;48.528;8.078;2023-05-20T01:08:16;12.90;99.90
10083;DHT22;5080;48.528;8.078;2023-05-20T01:10:46;13.10;99.90
10083;DHT22;5080;48.528;8.078;2023-05-20T01:13:19;13.00;99.90
10083;DHT22;5080;48.528;8.078;2023-05-20T01:15:47;13.10;99.90
10083;DHT22;5080;48.528;8.078;2023-05-20T01:18:15;13.00;99.90
10083;DHT22;5080;48.528;8.078;2023-05-20T01:20:47;13.20;99.90
10083;DHT22;5080;48.528;8.078;2023-05-20T01:23:16;13.10;99.90
10083;DHT22;5080;48.528;8.078;2023-05-20T01:25:43;13.10;99.90
10083;DHT22;5080;48.528;8.078;2023-05-20T01:28:10;13.10;99.90
10083;DHT22;5080;48.528;8.078;2023-05-20T01:30:46;13.00;99.90
10083;DHT22;5080;48.528;8.078;2023-05-20T01:33:14;12.90;99.90
10083;DHT22;5080;48.528;8.078;2023-05-20T01:35:43;12.90;99.90
10083;DHT22;5080;48.528;8.078;2023-05-20T01:38:10;12.90;99.90
10083;DHT22;5080;48.528;8.078;2023-05-20T01:40:39;12.90;99.90
10083;DHT22;5080;48.528;8.078;2023-05-20T01:43:06;12.90;99.90
10083;DHT22;5080;48.528;8.078;2023-05-20T01:45:33;12.90;99.90
10083;DHT22;5080;48.528;8.078;2023-05-20T01:48:01;12.90;99.90
10083;DHT22;5080;48.528;8.078;2023-05-20T01:50:28;13.00;99.90
10083;DHT22;5080;48.528;8.078;2023-05-20T01:52:55;13.10;99.90
10083;DHT22;5080;48.528;8.078;2023-05-20T01:55:22;13.00;99.90
10083;DHT22;5080;48.528;8.078;2023-05-20T01:57:50;13.00;99.90
10083;DHT22;5080;48.528;8.078;2023-05-20T02:00:17;13.00;99.90
10083;DHT22;5080;48.528;8.078;2023-05-20T02:02:44;13.00;99.90
10083;DHT22;5080;48.528;8.078;2023-05-20T02:05:11;13.10;99.90
10083;DHT22;5080;48.528;8.078;2023-05-20T02:07:38;13.10;99.90
10083;DHT22;5080;48.528;8.078;2023-05-20T02:10:06;13.20;99.90
10083;DHT22;5080;48.528;8.078;2023-05-20T02:12:33;13.20;99.90
10083;DHT22;5080;48.528;8.078;2023-05-20T02:15:01;13.30;99.90
10083;DHT22;5080;48.528;8.078;2023-05-20T02:17:28;13.30;99.90
10083;DHT22;5080;48.528;8.078;2023-05-20T02:19:55;13.30;99.90
10083;DHT22;5080;48.528;8.078;2023-05-20T02:22:22;13.30;99.90
10083;DHT22;5080;48.528;8.078;2023-05-20T02:24:48;13.30;99.90
10083;DHT22;5080;48.528;8.078;2023-05-20T02:27:15;13.20;99.90
10083;DHT22;5080;48.528;8.078;2023-05-20T02:29:42;13.20;99.90
10083;DHT22;5080;48.528;8.078;2023-05-20T02:32:11;13.20;99.90
10083;DHT22;5080;48.528;8.078;2023-05-20T02:34:38;13.30;99.90
10083;DHT22;5080;48.528;8.078;2023-05-20T02:37:05;13.20;99.90
10083;DHT22;5080;48.528;8.078;2023-05-20T02:39:32;13.20;99.90
10083;DHT22;5080;48.528;8.078;2023-05-20T02:41:58;13.20;99.90
10083;DHT22;5080;48.528;8.078;2023-05-20T02:44:25;13.20;99.90
10083;DHT22;5080;48.528;8.078;2023-05-20T02:46:52;13.20;99.90
10083;DHT22;5080;48.528;8.078;2023-05-20T02:49:20;13.20;99.90
10083;DHT22;5080;48.528;8.078;2023-05-20T02:51:48;13.20;99.90
10083;DHT22;5080;48.528;8.078;2023-05-20T02:54:15;13.20;99.90
10083;DHT22;5080;48.528;8.078;2023-05-20T02:56:42;13.20;99.90
10083;DHT22;5080;48.528;8.078;2023-05-20T02:59:09;13.20;99.90
10083;DHT22;5080;48.528;8.078;2023-05-20T03:01:36;13.20;99.90
10083;DHT22;5080;48.528;8.078;2023-05-20T03:04:05;13.20;99.90
10083;DHT22;5080;48.528;8.078;2023-05-20T03:06:33;13.20;99.90
10083;DHT22;5080;48.528;8.078;2023-05-20T03:09:00;13.30;99.90
10083;DHT22;5080;48.528;8.078;2023-05-20T03:11:27;13.30;99.90
10083;DHT22;5080;48.528;8.078;2023-05-20T03:13:54;13.30;99.90
10083;DHT22;5080;48.528;8.078;2023-05-20T03:16:21;13.30;99.90
10083;DHT22;5080;48.528;8.078;2023-05-20T03:18:49;13.30;99.90
10083;DHT22;5080;48.528;8.078;2023-05-20T03:21:16;13.30;99.90
10083;DHT22;5080;48.528;8.078;2023-05-20T03:23:44;13.30;99.90
10083;DHT22;5080;48.528;8.078;2023-05-20T03:26:11;13.30;99.90
10083;DHT22;5080;48.528;8.078;2023-05-20T03:28:38;13.30;99.90
10083;DHT22;5080;48.528;8.078;2023-05-20T03:31:05;13.30;99.90
10083;DHT22;5080;48.528;8.078;2023-05-20T03:33:33;13.40;99.90
10083;DHT22;5080;48.528;8.078;2023-05-20T03:36:00;13.40;99.90
10083;DHT22;5080;48.528;8.078;2023-05-20T03:38:27;13.30;99.90
10083;DHT22;5080;48.528;8.078;2023-05-20T03:40:55;13.40;99.90
10083;DHT22;5080;48.528;8.078;2023-05-20T03:43:22;13.40;99.90
10083;DHT22;5080;48.528;8.078;2023-05-20T03:45:49;13.50;99.90
10083;DHT22;5080;48.528;8.078;2023-05-20T03:48:16;13.40;99.90
10083;DHT22;5080;48.528;8.078;2023-05-20T03:50:43;13.40;99.90
10083;DHT22;5080;48.528;8.078;2023-05-20T03:53:10;13.40;99.90
10083;DHT22;5080;48.528;8.078;2023-05-20T03:55:37;13.40;99.90
10083;DHT22;5080;48.528;8.078;2023-05-20T03:58:06;13.40;99.90
10083;DHT22;5080;48.528;8.078;2023-05-20T04:00:33;13.40;99.90
10083;DHT22;5080;48.528;8.078;2023-05-20T04:03:00;13.50;99.90
10083;DHT22;5080;48.528;8.078;2023-05-20T04:05:27;13.40;99.90
10083;DHT22;5080;48.528;8.078;2023-05-20T04:07:54;13.50;99.90
10083;DHT22;5080;48.528;8.078;2023-05-20T04:10:22;13.70;99.90
10083;DHT22;5080;48.528;8.078;2023-05-20T04:12:49;13.50;99.90
10083;DHT22;5080;48.528;8.078;2023-05-20T04:15:17;13.50;99.90
10083;DHT22;5080;48.528;8.078;2023-05-20T04:17:44;13.60;99.90
10083;DHT22;5080;48.528;8.078;2023-05-20T04:20:13;13.70;99.90
10083;DHT22;5080;48.528;8.078;2023-05-20T04:22:39;13.70;99.90
10083;DHT22;5080;48.528;8.078;2023-05-20T04:25:07;13.80;99.90
10083;DHT22;5080;48.528;8.078;2023-05-20T04:27:34;13.90;99.90
10083;DHT22;5080;48.528;8.078;2023-05-20T04:30:02;13.90;99.90
10083;DHT22;5080;48.528;8.078;2023-05-20T04:32:31;13.80;99.90
10083;DHT22;5080;48.528;8.078;2023-05-20T04:34:59;13.90;99.90
10083;DHT22;5080;48.528;8.078;2023-05-20T04:37:26;14.00;99.90
10083;DHT22;5080;48.528;8.078;2023-05-20T04:39:53;14.00;99.90
10083;DHT22;5080;48.528;8.078;2023-05-20T04:42:20;14.20;99.90
10083;DHT22;5080;48.528;8.078;2023-05-20T04:44:47;14.20;99.90
10083;DHT22;5080;48.528;8.078;2023-05-20T04:47:14;14.20;99.90
10083;DHT22;5080;48.528;8.078;2023-05-20T04:49:42;14.40;99.90
10083;DHT22;5080;48.528;8.078;2023-05-20T04:52:10;14.40;99.90
10083;DHT22;5080;48.528;8.078;2023-05-20T04:54:36;14.50;99.90
10083;DHT22;5080;48.528;8.078;2023-05-20T04:57:04;14.60;99.90
10083;DHT22;5080;48.528;8.078;2023-05-20T04:59:31;14.60;99.90
10083;DHT22;5080;48.528;8.078;2023-05-20T05:01:58;14.70;99.90
10083;DHT22;5080;48.528;8.078;2023-05-20T05:04:25;14.70;99.90
10083;DHT22;5080;48.528;8.078;2023-05-20T05:06:53;14.80;99.90
10083;DHT22;5080;48.528;8.078;2023-05-20T05:09:20;14.80;99.90
10083;DHT22;5080;48.528;8.078;2023-05-20T05:11:47;14.80;99.90
10083;DHT22;5080;48.528;8.078;2023-05-20T05:14:13;14.90;99.90
10083;DHT22;5080;48.528;8.078;2023-05-20T05:16:40;15.10;99.90
10083;DHT22;5080;48.528;8.078;2023-05-20T05:19:07;15.20;99.90
10083;DHT22;5080;48.528;8.078;2023-05-20T05:21:34;15.30;99.90
10083;DHT22;5080;48.528;8.078;2023-05-20T05:24:02;15.50;99.90
10083;DHT22;5080;48.528;8.078;2023-05-20T05:26:29;15.70;99.90
10083;DHT22;5080;48.528;8.078;2023-05-20T05:28:56;15.90;99.90
10083;DHT22;5080;48.528;8.078;2023-05-20T05:31:23;16.10;99.90
10083;DHT22;5080;48.528;8.078;2023-05-20T05:33:50;16.30;99.90
10083;DHT22;5080;48.528;8.078;2023-05-20T05:36:16;16.40;99.90
10083;DHT22;5080;48.528;8.078;2023-05-20T05:38:43;16.50;99.90
10083;DHT22;5080;48.528;8.078;2023-05-20T05:41:11;16.60;99.90
10083;DHT22;5080;48.528;8.078;2023-05-20T05:43:38;16.60;99.90
10083;DHT22;5080;48.528;8.078;2023-05-20T05:46:05;16.80;99.90
10083;DHT22;5080;48.528;8.078;2023-05-20T05:48:32;16.80;99.90
10083;DHT22;5080;48.528;8.078;2023-05-20T05:50:59;16.80;99.90
10083;DHT22;5080;48.528;8.078;2023-05-20T05:53:26;16.90;99.90
10083;DHT22;5080;48.528;8.078;2023-05-20T05:55:53;16.90;99.90
10083;DHT22;5080;48.528;8.078;2023-05-20T05:58:21;17.00;99.90
10083;DHT22;5080;48.528;8.078;2023-05-20T06:00:50;17.00;99.90
10083;DHT22;5080;48.528;8.078;2023-05-20T06:03:19;16.80;99.90
10083;DHT22;5080;48.528;8.078;2023-05-20T06:05:46;16.60;99.90
10083;DHT22;5080;48.528;8.078;2023-05-20T06:08:13;16.40;99.90
10083;DHT22;5080;48.528;8.078;2023-05-20T06:10:40;16.20;99.90
10083;DHT22;5080;48.528;8.078;2023-05-20T06:13:06;16.10;99.90
10083;DHT22;5080;48.528;8.078;2023-05-20T06:15:35;16.10;99.90
10083;DHT22;5080;48.528;8.078;2023-05-20T06:18:02;16.10;99.90
10083;DHT22;5080;48.528;8.078;2023-05-20T06:20:28;16.00;99.90
10083;DHT22;5080;48.528;8.078;2023-05-20T06:22:55;16.00;99.90
10083;DHT22;5080;48.528;8.078;2023-05-20T06:25:22;16.00;99.90
10083;DHT22;5080;48.528;8.078;2023-05-20T06:27:49;16.00;99.90
10083;DHT22;5080;48.528;8.078;2023-05-20T06:30:16;16.00;99.90
10083;DHT22;5080;48.528;8.078;2023-05-20T06:32:45;16.00;99.90
10083;DHT22;5080;48.528;8.078;2023-05-20T06:35:11;16.00;99.90
10083;DHT22;5080;48.528;8.078;2023-05-20T06:37:38;15.90;99.90
10083;DHT22;5080;48.528;8.078;2023-05-20T06:40:06;15.90;99.90
10083;DHT22;5080;48.528;8.078;2023-05-20T06:42:33;15.90;99.90
10083;DHT22;5080;48.528;8.078;2023-05-20T06:45:00;15.90;99.90
10083;DHT22;5080;48.528;8.078;2023-05-20T06:47:27;16.00;99.90
10083;DHT22;5080;48.528;8.078;2023-05-20T06:49:55;16.00;99.90
10083;DHT22;5080;48.528;8.078;2023-05-20T06:52:22;16.10;99.90
10083;DHT22;5080;48.528;8.078;2023-05-20T06:54:49;16.10;99.90
10083;DHT22;5080;48.528;8.078;2023-05-20T06:57:15;16.10;99.90
10083;DHT22;5080;48.528;8.078;2023-05-20T06:59:42;16.20;99.90
10083;DHT22;5080;48.528;8.078;2023-05-20T07:02:10;16.20;99.90
10083;DHT22;5080;48.528;8.078;2023-05-20T07:04:36;16.30;99.90
10083;DHT22;5080;48.528;8.078;2023-05-20T07:07:05;16.30;99.90
10083;DHT22;5080;48.528;8.078;2023-05-20T07:09:31;16.30;99.90
10083;DHT22;5080;48.528;8.078;2023-05-20T07:11:58;16.30;99.90
10083;DHT22;5080;48.528;8.078;2023-05-20T07:14:25;16.40;99.90
10083;DHT22;5080;48.528;8.078;2023-05-20T07:16:52;16.50;99.90
10083;DHT22;5080;48.528;8.078;2023-05-20T07:19:19;16.50;99.90
10083;DHT22;5080;48.528;8.078;2023-05-20T07:21:46;16.50;99.90
10083;DHT22;5080;48.528;8.078;2023-05-20T07:24:15;16.80;99.90
10083;DHT22;5080;48.528;8.078;2023-05-20T07:26:42;16.80;99.90
10083;DHT22;5080;48.528;8.078;2023-05-20T07:29:09;16.90;99.90
10083;DHT22;5080;48.528;8.078;2023-05-20T07:31:36;16.90;99.90
10083;DHT22;5080;48.528;8.078;2023-05-20T07:34:03;17.00;99.90
10083;DHT22;5080;48.528;8.078;2023-05-20T07:36:30;17.00;99.90
10083;DHT22;5080;48.528;8.078;2023-05-20T07:38:57;17.10;99.90
10083;DHT22;5080;48.528;8.078;2023-05-20T07:41:25;17.30;99.90
10083;DHT22;5080;48.528;8.078;2023-05-20T07:43:52;17.30;99.90
10083;DHT22;5080;48.528;8.078;2023-05-20T07:46:19;17.30;99.90
10083;DHT22;5080;48.528;8.078;2023-05-20T07:48:46;17.40;99.90
10083;DHT22;5080;48.528;8.078;2023-05-20T07:51:13;17.50;99.90
10083;DHT22;5080;48.528;8.078;2023-05-20T07:53:40;17.70;99.90
10083;DHT22;5080;48.528;8.078;2023-05-20T07:56:07;17.90;99.90
10083;DHT22;5080;48.528;8.078;2023-05-20T07:58:35;17.90;99.90
10083;DHT22;5080;48.528;8.078;2023-05-20T08:01:02;17.90;99.90
10083;DHT22;5080;48.528;8.078;2023-05-20T08:03:28;17.90;99.90
10083;DHT22;5080;48.528;8.078;2023-05-20T08:05:55;18.00;99.90
10083;DHT22;5080;48.528;8.078;2023-05-20T08:08:22;18.10;99.90
10083;DHT22;5080;48.528;8.078;2023-05-20T08:10:50;18.50;99.90
10083;DHT22;5080;48.528;8.078;2023-05-20T08:13:17;18.70;99.90
10083;DHT22;5080;48.528;8.078;2023-05-20T08:15:45;18.80;99.90
10083;DHT22;5080;48.528;8.078;2023-05-20T08:18:13;19.00;99.90
10083;DHT22;5080;48.528;8.078;2023-05-20T08:20:39;19.20;99.90
10083;DHT22;5080;48.528;8.078;2023-05-20T08:23:07;19.40;99.90
10083;DHT22;5080;48.528;8.078;2023-05-20T08:25:33;19.50;99.90
10083;DHT22;5080;48.528;8.078;2023-05-20T08:28:01;19.70;99.90
10083;DHT22;5080;48.528;8.078;2023-05-20T08:30:30;19.60;99.90
10083;DHT22;5080;48.528;8.078;2023-05-20T08:32:58;19.70;99.90
10083;DHT22;5080;48.528;8.078;2023-05-20T08:35:26;19.60;99.90
10083;DHT22;5080;48.528;8.078;2023-05-20T08:37:54;19.70;99.90
10083;DHT22;5080;48.528;8.078;2023-05-20T08:40:21;19.80;99.90
10083;DHT22;5080;48.528;8.078;2023-05-20T08:42:49;19.90;99.90
10083;DHT22;5080;48.528;8.078;2023-05-20T08:45:18;20.20;99.90
10083;DHT22;5080;48.528;8.078;2023-05-20T08:47:45;20.10;99.90
10083;DHT22;5080;48.528;8.078;2023-05-20T08:50:14;20.10;99.90
10083;DHT22;5080;48.528;8.078;2023-05-20T08:52:42;20.00;99.90
10083;DHT22;5080;48.528;8.078;2023-05-20T08:55:13;20.20;99.90
10083;DHT22;5080;48.528;8.078;2023-05-20T08:57:41;20.30;99.90
10083;DHT22;5080;48.528;8.078;2023-05-20T09:00:11;20.30;99.90
10083;DHT22;5080;48.528;8.078;2023-05-20T09:02:41;20.40;99.90
10083;DHT22;5080;48.528;8.078;2023-05-20T09:05:10;20.40;99.90
10083;DHT22;5080;48.528;8.078;2023-05-20T09:07:38;20.30;99.90
10083;DHT22;5080;48.528;8.078;2023-05-20T09:10:07;20.10;99.90
10083;DHT22;5080;48.528;8.078;2023-05-20T09:12:35;20.20;99.90
10083;DHT22;5080;48.528;8.078;2023-05-20T09:15:03;20.40;99.90
10083;DHT22;5080;48.528;8.078;2023-05-20T09:17:31;20.70;99.90
10083;DHT22;5080;48.528;8.078;2023-05-20T09:19:57;20.70;99.90
10083;DHT22;5080;48.528;8.078;2023-05-20T09:22:25;20.80;99.90
10083;DHT22;5080;48.528;8.078;2023-05-20T09:24:54;20.90;99.90
10083;DHT22;5080;48.528;8.078;2023-05-20T09:27:21;20.70;99.90
10083;DHT22;5080;48.528;8.078;2023-05-20T09:29:49;20.70;99.90
10083;DHT22;5080;48.528;8.078;2023-05-20T09:32:17;20.70;99.90
10083;DHT22;5080;48.528;8.078;2023-05-20T09:34:45;20.60;99.90
10083;DHT22;5080;48.528;8.078;2023-05-20T09:37:13;20.80;99.90
10083;DHT22;5080;48.528;8.078;2023-05-20T09:39:47;20.70;99.90
10083;DHT22;5080;48.528;8.078;2023-05-20T09:42:21;20.90;99.90
10083;DHT22;5080;48.528;8.078;2023-05-20T09:44:51;21.20;99.90
10083;DHT22;5080;48.528;8.078;2023-05-20T09:47:19;21.50;99.90
10083;DHT22;5080;48.528;8.078;2023-05-20T09:49:46;21.80;99.90
10083;DHT22;5080;48.528;8.078;2023-05-20T09:52:14;21.60;99.90
10083;DHT22;5080;48.528;8.078;2023-05-20T09:54:42;21.60;99.90
10083;DHT22;5080;48.528;8.078;2023-05-20T09:57:09;21.70;99.90
10083;DHT22;5080;48.528;8.078;2023-05-20T09:59:40;21.80;99.90
10083;DHT22;5080;48.528;8.078;2023-05-20T10:02:07;21.70;99.90
10083;DHT22;5080;48.528;8.078;2023-05-20T10:04:37;21.40;99.90
10083;DHT22;5080;48.528;8.078;2023-05-20T10:10:21;21.40;99.90
10083;DHT22;5080;48.528;8.078;2023-05-20T10:12:58;21.60;99.90
10083;DHT22;5080;48.528;8.078;2023-05-20T10:15:35;21.70;99.90
10083;DHT22;5080;48.528;8.078;2023-05-20T10:18:10;21.70;99.90
10083;DHT22;5080;48.528;8.078;2023-05-20T10:20:45;21.80;99.90
10083;DHT22;5080;48.528;8.078;2023-05-20T10:23:20;22.00;99.90
10083;DHT22;5080;48.528;8.078;2023-05-20T10:25:51;22.40;99.90
10083;DHT22;5080;48.528;8.078;2023-05-20T10:28:27;22.50;99.90
10083;DHT22;5080;48.528;8.078;2023-05-20T10:30:56;22.60;99.90
10083;DHT22;5080;48.528;8.078;2023-05-20T10:33:24;22.60;99.90
10083;DHT22;5080;48.528;8.078;2023-05-20T10:35:52;22.50;99.90
10083;DHT22;5080;48.528;8.078;2023-05-20T10:38:20;22.60;99.90
10083;DHT22;5080;48.528;8.078;2023-05-20T10:40:47;22.90;99.90
10083;DHT22;5080;48.528;8.078;2023-05-20T10:43:16;23.00;99.90
10083;DHT22;5080;48.528;8.078;2023-05-20T10:45:47;23.20;99.90
10083;DHT22;5080;48.528;8.078;2023-05-20T10:48:25;23.00;99.90
10083;DHT22;5080;48.528;8.078;2023-05-20T10:50:54;23.20;99.90
10083;DHT22;5080;48.528;8.078;2023-05-20T10:53:23;23.70;99.90
10083;DHT22;5080;48.528;8.078;2023-05-20T10:55:52;24.10;99.90
10083;DHT22;5080;48.528;8.078;2023-05-20T10:58:21;24.40;99.90
10083;DHT22;5080;48.528;8.078;2023-05-20T11:00:49;24.70;99.90
10083;DHT22;5080;48.528;8.078;2023-05-20T11:03:16;24.80;99.90
10083;DHT22;5080;48.528;8.078;2023-05-20T11:05:46;24.80;99.90
10083;DHT22;5080;48.528;8.078;2023-05-20T11:08:13;24.50;99.90
10083;DHT22;5080;48.528;8.078;2023-05-20T11:10:41;24.40;99.90
10083;DHT22;5080;48.528;8.078;2023-05-20T11:13:11;23.90;99.90
10083;DHT22;5080;48.528;8.078;2023-05-20T11:15:39;23.70;99.90
10083;DHT22;5080;48.528;8.078;2023-05-20T11:18:06;23.70;99.90
10083;DHT22;5080;48.528;8.078;2023-05-20T11:20:32;23.60;99.90
10083;DHT22;5080;48.528;8.078;2023-05-20T11:23:01;23.70;99.90
10083;DHT22;5080;48.528;8.078;2023-05-20T11:25:29;23.60;99.90
10083;DHT22;5080;48.528;8.078;2023-05-20T11:27:56;23.70;99.90
10083;DHT22;5080;48.528;8.078;2023-05-20T11:30:23;23.80;99.90
10083;DHT22;5080;48.528;8.078;2023-05-20T11:32:57;24.20;99.90
10083;DHT22;5080;48.528;8.078;2023-05-20T11:35:24;24.60;99.90
10083;DHT22;5080;48.528;8.078;2023-05-20T11:37:55;24.80;99.90
10083;DHT22;5080;48.528;8.078;2023-05-20T11:40:25;25.00;99.90
10083;DHT22;5080;48.528;8.078;2023-05-20T11:42:56;25.20;99.90
10083;DHT22;5080;48.528;8.078;2023-05-20T11:45:23;25.30;99.90
10083;DHT22;5080;48.528;8.078;2023-05-20T11:48:00;25.20;99.90
10083;DHT22;5080;48.528;8.078;2023-05-20T11:50:27;25.30;99.90
10083;DHT22;5080;48.528;8.078;2023-05-20T11:52:57;25.50;99.90
10083;DHT22;5080;48.528;8.078;2023-05-20T11:55:26;25.40;99.90
10083;DHT22;5080;48.528;8.078;2023-05-20T11:57:54;25.40;99.90
10083;DHT22;5080;48.528;8.078;2023-05-20T12:00:21;25.50;99.90
10083;DHT22;5080;48.528;8.078;2023-05-20T12:02:48;25.20;99.90
10083;DHT22;5080;48.528;8.078;2023-05-20T12:05:15;25.20;99.90
10083;DHT22;5080;48.528;8.078;2023-05-20T12:07:42;25.30;99.90
10083;DHT22;5080;48.528;8.078;2023-05-20T12:10:10;25.50;99.90
10083;DHT22;5080;48.528;8.078;2023-05-20T12:12:39;25.40;99.90
10083;DHT22;5080;48.528;8.078;2023-05-20T12:15:06;25.40;99.90
10083;DHT22;5080;48.528;8.078;2023-05-20T12:17:43;25.40;99.90
10083;DHT22;5080;48.528;8.078;2023-05-20T12:20:12;25.40;99.90
10083;DHT22;5080;48.528;8.078;2023-05-20T12:22:39;25.20;99.90
10083;DHT22;5080;48.528;8.078;2023-05-20T12:25:06;25.10;99.90
10083;DHT22;5080;48.528;8.078;2023-05-20T12:27:33;25.00;99.90
10083;DHT22;5080;48.528;8.078;2023-05-20T12:30:02;24.90;99.90
10083;DHT22;5080;48.528;8.078;2023-05-20T12:32:29;24.80;99.90
10083;DHT22;5080;48.528;8.078;2023-05-20T12:34:55;24.80;99.90
10083;DHT22;5080;48.528;8.078;2023-05-20T12:37:22;24.90;99.90
10083;DHT22;5080;48.528;8.078;2023-05-20T12:39:49;24.70;99.90
10083;DHT22;5080;48.528;8.078;2023-05-20T12:42:16;24.70;99.90
10083;DHT22;5080;48.528;8.078;2023-05-20T12:44:43;24.60;99.90
10083;DHT22;5080;48.528;8.078;2023-05-20T12:47:11;24.70;99.90
10083;DHT22;5080;48.528;8.078;2023-05-20T12:49:38;24.90;99.90
10083;DHT22;5080;48.528;8.078;2023-05-20T12:52:05;25.00;99.90
10083;DHT22;5080;48.528;8.078;2023-05-20T12:54:33;25.00;99.90
10083;DHT22;5080;48.528;8.078;2023-05-20T12:57:00;25.10;99.90
10083;DHT22;5080;48.528;8.078;2023-05-20T12:59:27;25.40;99.90
10083;DHT22;5080;48.528;8.078;2023-05-20T13:01:54;25.50;99.90
10083;DHT22;5080;48.528;8.078;2023-05-20T13:04:22;25.60;99.90
10083;DHT22;5080;48.528;8.078;2023-05-20T13:06:49;25.60;99.90
10083;DHT22;5080;48.528;8.078;2023-05-20T13:09:16;25.70;99.90
10083;DHT22;5080;48.528;8.078;2023-05-20T13:11:43;25.80;99.90
10083;DHT22;5080;48.528;8.078;2023-05-20T13:14:10;25.70;99.90
10083;DHT22;5080;48.528;8.078;2023-05-20T13:16:37;25.60;99.90
10083;DHT22;5080;48.528;8.078;2023-05-20T13:19:04;25.50;99.90
10083;DHT22;5080;48.528;8.078;2023-05-20T13:21:32;25.20;99.90
10083;DHT22;5080;48.528;8.078;2023-05-20T13:24:00;24.90;99.90
10083;DHT22;5080;48.528;8.078;2023-05-20T13:26:27;24.80;99.90
10083;DHT22;5080;48.528;8.078;2023-05-20T13:28:53;24.60;99.90
10083;DHT22;5080;48.528;8.078;2023-05-20T13:31:20;24.60;99.90
10083;DHT22;5080;48.528;8.078;2023-05-20T13:33:47;24.60;99.90
10083;DHT22;5080;48.528;8.078;2023-05-20T13:36:14;24.70;99.90
10083;DHT22;5080;48.528;8.078;2023-05-20T13:38:42;24.80;99.90
10083;DHT22;5080;48.528;8.078;2023-05-20T13:41:09;25.00;99.90
10083;DHT22;5080;48.528;8.078;2023-05-20T13:43:36;25.00;99.90
10083;DHT22;5080;48.528;8.078;2023-05-20T13:46:06;25.10;99.90
10083;DHT22;5080;48.528;8.078;2023-05-20T13:48:33;25.20;99.90
10083;DHT22;5080;48.528;8.078;2023-05-20T13:51:00;25.20;99.90
10083;DHT22;5080;48.528;8.078;2023-05-20T13:53:27;25.20;99.90
10083;DHT22;5080;48.528;8.078;2023-05-20T13:55:56;25.00;99.90
10083;DHT22;5080;48.528;8.078;2023-05-20T13:58:23;24.80;99.90
10083;DHT22;5080;48.528;8.078;2023-05-20T14:00:50;24.70;99.90
10083;DHT22;5080;48.528;8.078;2023-05-20T14:03:18;24.80;99.90
10083;DHT22;5080;48.528;8.078;2023-05-20T14:05:45;24.80;99.90
10083;DHT22;5080;48.528;8.078;2023-05-20T14:08:12;25.00;99.90
10083;DHT22;5080;48.528;8.078;2023-05-20T14:10:39;25.10;99.90
10083;DHT22;5080;48.528;8.078;2023-05-20T14:13:07;24.80;99.90
10083;DHT22;5080;48.528;8.078;2023-05-20T14:15:35;24.80;99.90
10083;DHT22;5080;48.528;8.078;2023-05-20T14:18:02;24.80;99.90
10083;DHT22;5080;48.528;8.078;2023-05-20T14:20:29;24.80;99.90
10083;DHT22;5080;48.528;8.078;2023-05-20T14:22:56;24.80;99.90
10083;DHT22;5080;48.528;8.078;2023-05-20T14:25:25;24.70;99.90
10083;DHT22;5080;48.528;8.078;2023-05-20T14:27:52;24.60;99.90
10083;DHT22;5080;48.528;8.078;2023-05-20T14:30:20;24.60;99.90
10083;DHT22;5080;48.528;8.078;2023-05-20T14:32:47;24.70;99.90
10083;DHT22;5080;48.528;8.078;2023-05-20T14:35:14;24.70;99.90
10083;DHT22;5080;48.528;8.078;2023-05-20T14:37:42;24.80;99.90
10083;DHT22;5080;48.528;8.078;2023-05-20T14:40:10;24.80;99.90
10083;DHT22;5080;48.528;8.078;2023-05-20T14:42:37;24.80;99.90
10083;DHT22;5080;48.528;8.078;2023-05-20T14:45:04;24.80;99.90
10083;DHT22;5080;48.528;8.078;2023-05-20T14:47:33;24.80;99.90
10083;DHT22;5080;48.528;8.078;2023-05-20T14:49:59;24.80;99.90
10083;DHT22;5080;48.528;8.078;2023-05-20T14:52:26;24.80;99.90
10083;DHT22;5080;48.528;8.078;2023-05-20T14:54:53;24.90;99.90
10083;DHT22;5080;48.528;8.078;2023-05-20T14:57:21;24.90;99.90
10083;DHT22;5080;48.528;8.078;2023-05-20T14:59:48;24.80;99.90
10083;DHT22;5080;48.528;8.078;2023-05-20T15:02:17;24.70;99.90
10083;DHT22;5080;48.528;8.078;2023-05-20T15:04:45;24.60;99.90
10083;DHT22;5080;48.528;8.078;2023-05-20T15:07:13;24.50;99.90
10083;DHT22;5080;48.528;8.078;2023-05-20T15:09:41;24.60;99.90
10083;DHT22;5080;48.528;8.078;2023-05-20T15:12:08;24.50;99.90
10083;DHT22;5080;48.528;8.078;2023-05-20T15:14:36;24.50;99.90
10083;DHT22;5080;48.528;8.078;2023-05-20T15:17:03;24.50;99.90
10083;DHT22;5080;48.528;8.078;2023-05-20T15:19:30;24.50;99.90
10083;DHT22;5080;48.528;8.078;2023-05-20T15:21:59;24.40;99.90
10083;DHT22;5080;48.528;8.078;2023-05-20T15:24:26;24.40;99.90
10083;DHT22;5080;48.528;8.078;2023-05-20T15:26:53;24.50;99.90
10083;DHT22;5080;48.528;8.078;2023-05-20T15:29:20;24.50;99.90
10083;DHT22;5080;48.528;8.078;2023-05-20T15:31:47;24.20;99.90
10083;DHT22;5080;48.528;8.078;2023-05-20T15:34:14;24.20;99.90
10083;DHT22;5080;48.528;8.078;2023-05-20T15:36:41;24.30;99.90
10083;DHT22;5080;48.528;8.078;2023-05-20T15:39:09;24.20;99.90
10083;DHT22;5080;48.528;8.078;2023-05-20T15:41:37;24.10;99.90
10083;DHT22;5080;48.528;8.078;2023-05-20T15:44:06;24.00;99.90
10083;DHT22;5080;48.528;8.078;2023-05-20T15:46:33;23.80;99.90
10083;DHT22;5080;48.528;8.078;2023-05-20T15:49:00;23.80;99.90
10083;DHT22;5080;48.528;8.078;2023-05-20T15:51:27;23.70;99.90